sensor_id;sensor_type;location;lat;lon;timestamp;pressure;altitude;pressure_sealevel;temperature;humidity
15487;BME280;7845;53.698;10.078;2023-04-06T00:02:11;101804.31;;;3.26;100.00
15487;BME280;7845;53.698;10.078;2023-04-06T00:04:36;101790.59;;;3.27;100.00
15487;BME280;7845;53.698;10.078;2023-04-06T00:07:01;101793.38;;;3.31;100.00
15487;BME280;7845;53.698;10.078;2023-04-06T00:09:27;101791.66;;;3.32;100.00
15487;BME280;7845;53.698;10.078;2023-04-06T00:11:53;101786.59;;;3.35;100.00
15487;BME280;7845;53.698;10.078;2023-04-06T00:14:18;101784.91;;;3.35;100.00
15487;BME280;7845;53.698;10.078;2023-04-06T00:16:44;101784.78;;;3.32;100.00
15487;BME280;7845;53.698;10.078;2023-04-06T00:19:09;101782.09;;;3.29;100.00
15487;BME280;7845;53.698;10.078;2023-04-06T00:21:36;101780.41;;;3.30;100.00
15487;BME280;7845;53.698;10.078;2023-04-06T00:24:02;101778.63;;;3.29;100.00
15487;BME280;7845;53.698;10.078;2023-04-06T00:26:29;101780.25;;;3.25;100.00
15487;BME280;7845;53.698;10.078;2023-04-06T00:28:54;101774.25;;;3.26;100.00
15487;BME280;7845;53.698;10.078;2023-04-06T00:31:20;101770.44;;;3.17;100.00
15487;BME280;7845;53.698;10.078;2023-04-06T00:33:47;101779.91;;;3.16;100.00
15487;BME280;7845;53.698;10.078;2023-04-06T00:36:13;101778.28;;;3.20;100.00
15487;BME280;7845;53.698;10.078;2023-04-06T00:38:38;101771.31;;;3.17;100.00
15487;BME280;7845;53.698;10.078;2023-04-06T00:41:04;101770.66;;;3.23;100.00
15487;BME280;7845;53.698;10.078;2023-04-06T00:43:31;101765.50;;;3.23;100.00
15487;BME280;7845;53.698;10.078;2023-04-06T00:46:00;101765.03;;;3.11;100.00
15487;BME280;7845;53.698;10.078;2023-04-06T00:48:25;101763.53;;;3.16;100.00
15487;BME280;7845;53.698;10.078;2023-04-06T00:50:54;101762.31;;;3.06;100.00
15487;BME280;7845;53.698;10.078;2023-04-06T00:53:21;101758.16;;;3.10;100.00
15487;BME280;7845;53.698;10.078;2023-04-06T00:55:47;101747.88;;;3.11;100.00
15487;BME280;7845;53.698;10.078;2023-04-06T00:58:13;101746.13;;;3.10;100.00
15487;BME280;7845;53.698;10.078;2023-04-06T01:00:38;101753.16;;;3.14;100.00
15487;BME280;7845;53.698;10.078;2023-04-06T01:03:04;101751.41;;;3.13;100.00
15487;BME280;7845;53.698;10.078;2023-04-06T01:05:33;101750.56;;;3.14;100.00
15487;BME280;7845;53.698;10.078;2023-04-06T01:07:59;101736.44;;;3.05;100.00
15487;BME280;7845;53.698;10.078;2023-04-06T01:10:26;101740.66;;;3.03;100.00
15487;BME280;7845;53.698;10.078;2023-04-06T01:12:52;101744.28;;;3.08;100.00
15487;BME280;7845;53.698;10.078;2023-04-06T01:15:18;101733.97;;;3.08;100.00
15487;BME280;7845;53.698;10.078;2023-04-06T01:17:44;101740.88;;;3.07;100.00
15487;BME280;7845;53.698;10.078;2023-04-06T01:20:09;101739.50;;;2.95;100.00
15487;BME280;7845;53.698;10.078;2023-04-06T01:22:36;101738.28;;;3.07;100.00
15487;BME280;7845;53.698;10.078;2023-04-06T01:25:03;101732.78;;;2.98;100.00
15487;BME280;7845;53.698;10.078;2023-04-06T01:27:28;101726.50;;;2.92;100.00
15487;BME280;7845;53.698;10.078;2023-04-06T01:29:56;101729.38;;;2.77;100.00
15487;BME280;7845;53.698;10.078;2023-04-06T01:32:22;101732.16;;;2.61;100.00
15487;BME280;7845;53.698;10.078;2023-04-06T01:34:48;101732.53;;;2.49;100.00
15487;BME280;7845;53.698;10.078;2023-04-06T01:37:16;101733.81;;;2.38;100.00
15487;BME280;7845;53.698;10.078;2023-04-06T01:39:44;101736.16;;;2.32;100.00
15487;BME280;7845;53.698;10.078;2023-04-06T01:42:10;101742.75;;;2.26;100.00
15487;BME280;7845;53.698;10.078;2023-04-06T01:44:37;101739.66;;;2.34;100.00
15487;BME280;7845;53.698;10.078;2023-04-06T01:47:02;101740.78;;;2.41;100.00
15487;BME280;7845;53.698;10.078;2023-04-06T01:49:31;101739.59;;;2.53;100.00
15487;BME280;7845;53.698;10.078;2023-04-06T01:51:56;101737.94;;;2.55;100.00
15487;BME280;7845;53.698;10.078;2023-04-06T01:54:23;101738.94;;;2.59;100.00
15487;BME280;7845;53.698;10.078;2023-04-06T01:56:49;101742.53;;;2.62;100.00
15487;BME280;7845;53.698;10.078;2023-04-06T01:59:16;101734.84;;;2.64;100.00
15487;BME280;7845;53.698;10.078;2023-04-06T02:01:41;101730.38;;;2.60;100.00
15487;BME280;7845;53.698;10.078;2023-04-06T02:04:07;101736.66;;;2.66;100.00
15487;BME280;7845;53.698;10.078;2023-04-06T02:06:32;101735.53;;;2.60;100.00
15487;BME280;7845;53.698;10.078;2023-04-06T02:08:57;101733.81;;;2.59;100.00
15487;BME280;7845;53.698;10.078;2023-04-06T02:11:23;101731.66;;;2.49;100.00
15487;BME280;7845;53.698;10.078;2023-04-06T02:13:48;101731.25;;;2.38;100.00
15487;BME280;7845;53.698;10.078;2023-04-06T02:16:13;101733.69;;;2.56;100.00
15487;BME280;7845;53.698;10.078;2023-04-06T02:18:39;101725.94;;;2.56;100.00
15487;BME280;7845;53.698;10.078;2023-04-06T02:21:05;101735.44;;;2.57;100.00
15487;BME280;7845;53.698;10.078;2023-04-06T02:23:30;101724.94;;;2.52;100.00
15487;BME280;7845;53.698;10.078;2023-04-06T02:25:57;101728.06;;;2.45;100.00
15487;BME280;7845;53.698;10.078;2023-04-06T02:28:22;101734.94;;;2.45;100.00
15487;BME280;7845;53.698;10.078;2023-04-06T02:30:47;101740.03;;;2.43;100.00
15487;BME280;7845;53.698;10.078;2023-04-06T02:33:14;101740.28;;;2.49;100.00
15487;BME280;7845;53.698;10.078;2023-04-06T02:35:40;101732.13;;;2.39;100.00
15487;BME280;7845;53.698;10.078;2023-04-06T02:38:06;101738.25;;;2.42;100.00
15487;BME280;7845;53.698;10.078;2023-04-06T02:40:31;101736.19;;;2.34;100.00
15487;BME280;7845;53.698;10.078;2023-04-06T02:42:57;101744.94;;;2.37;100.00
15487;BME280;7845;53.698;10.078;2023-04-06T02:45:22;101744.25;;;2.41;100.00
15487;BME280;7845;53.698;10.078;2023-04-06T02:47:47;101742.56;;;2.42;100.00
15487;BME280;7845;53.698;10.078;2023-04-06T02:50:13;101743.63;;;2.47;100.00
15487;BME280;7845;53.698;10.078;2023-04-06T02:52:38;101744.75;;;2.53;100.00
15487;BME280;7845;53.698;10.078;2023-04-06T02:55:05;101735.50;;;2.38;100.00
15487;BME280;7845;53.698;10.078;2023-04-06T02:57:32;101750.34;;;2.43;100.00
15487;BME280;7845;53.698;10.078;2023-04-06T02:59:58;101747.13;;;2.28;100.00
15487;BME280;7845;53.698;10.078;2023-04-06T03:02:33;101748.66;;;2.23;100.00
15487;BME280;7845;53.698;10.078;2023-04-06T03:05:00;101754.44;;;2.38;100.00
15487;BME280;7845;53.698;10.078;2023-04-06T03:07:25;101749.16;;;2.35;100.00
15487;BME280;7845;53.698;10.078;2023-04-06T03:09:50;101751.84;;;2.38;100.00
15487;BME280;7845;53.698;10.078;2023-04-06T03:12:16;101751.09;;;2.41;100.00
15487;BME280;7845;53.698;10.078;2023-04-06T03:14:41;101740.47;;;2.33;100.00
15487;BME280;7845;53.698;10.078;2023-04-06T03:17:08;101750.75;;;2.33;100.00
15487;BME280;7845;53.698;10.078;2023-04-06T03:19:33;101740.09;;;2.45;100.00
15487;BME280;7845;53.698;10.078;2023-04-06T03:22:00;101742.69;;;2.45;100.00
15487;BME280;7845;53.698;10.078;2023-04-06T03:24:26;101741.19;;;2.29;100.00
15487;BME280;7845;53.698;10.078;2023-04-06T03:26:53;101746.44;;;2.32;100.00
15487;BME280;7845;53.698;10.078;2023-04-06T03:29:19;101743.91;;;2.34;100.00
15487;BME280;7845;53.698;10.078;2023-04-06T03:31:44;101742.78;;;2.27;100.00
15487;BME280;7845;53.698;10.078;2023-04-06T03:34:10;101747.13;;;2.28;100.00
15487;BME280;7845;53.698;10.078;2023-04-06T03:36:35;101752.38;;;2.30;100.00
15487;BME280;7845;53.698;10.078;2023-04-06T03:39:03;101746.63;;;2.37;100.00
15487;BME280;7845;53.698;10.078;2023-04-06T03:41:31;101744.94;;;2.37;100.00
15487;BME280;7845;53.698;10.078;2023-04-06T03:43:59;101749.78;;;2.30;100.00
15487;BME280;7845;53.698;10.078;2023-04-06T03:46:26;101745.06;;;2.19;100.00
15487;BME280;7845;53.698;10.078;2023-04-06T03:48:52;101747.38;;;2.13;100.00
15487;BME280;7845;53.698;10.078;2023-04-06T03:51:18;101752.75;;;2.18;100.00
15487;BME280;7845;53.698;10.078;2023-04-06T03:53:43;101763.97;;;2.20;100.00
15487;BME280;7845;53.698;10.078;2023-04-06T03:56:09;101753.59;;;2.18;100.00
15487;BME280;7845;53.698;10.078;2023-04-06T03:58:37;101751.97;;;2.20;100.00
15487;BME280;7845;53.698;10.078;2023-04-06T04:01:02;101750.03;;;2.15;100.00
15487;BME280;7845;53.698;10.078;2023-04-06T04:03:27;101746.09;;;2.04;100.00
15487;BME280;7845;53.698;10.078;2023-04-06T04:05:54;101753.03;;;2.05;100.00
15487;BME280;7845;53.698;10.078;2023-04-06T04:08:20;101754.59;;;2.01;100.00
15487;BME280;7845;53.698;10.078;2023-04-06T04:10:46;101757.13;;;2.00;100.00
15487;BME280;7845;53.698;10.078;2023-04-06T04:13:11;101755.59;;;2.05;100.00
15487;BME280;7845;53.698;10.078;2023-04-06T04:15:37;101762.94;;;1.96;100.00
15487;BME280;7845;53.698;10.078;2023-04-06T04:18:03;101755.06;;;1.93;100.00
15487;BME280;7845;53.698;10.078;2023-04-06T04:20:28;101757.38;;;1.87;100.00
15487;BME280;7845;53.698;10.078;2023-04-06T04:22:54;101750.56;;;1.87;100.00
15487;BME280;7845;53.698;10.078;2023-04-06T04:25:19;101757.38;;;1.87;100.00
15487;BME280;7845;53.698;10.078;2023-04-06T04:27:47;101758.16;;;1.84;100.00
15487;BME280;7845;53.698;10.078;2023-04-06T04:30:13;101755.69;;;1.87;100.00
15487;BME280;7845;53.698;10.078;2023-04-06T04:32:41;101758.28;;;1.87;100.00
15487;BME280;7845;53.698;10.078;2023-04-06T04:35:06;101758.47;;;1.92;100.00
15487;BME280;7845;53.698;10.078;2023-04-06T04:37:34;101756.50;;;2.05;100.00
15487;BME280;7845;53.698;10.078;2023-04-06T04:40:00;101759.81;;;2.03;100.00
15487;BME280;7845;53.698;10.078;2023-04-06T04:42:25;101765.22;;;2.09;100.00
15487;BME280;7845;53.698;10.078;2023-04-06T04:44:51;101761.00;;;2.11;100.00
15487;BME280;7845;53.698;10.078;2023-04-06T04:47:17;101765.84;;;2.24;100.00
15487;BME280;7845;53.698;10.078;2023-04-06T04:49:42;101771.19;;;2.29;100.00
15487;BME280;7845;53.698;10.078;2023-04-06T04:52:07;101767.34;;;2.40;100.00
15487;BME280;7845;53.698;10.078;2023-04-06T04:54:33;101764.97;;;2.44;100.00
15487;BME280;7845;53.698;10.078;2023-04-06T04:56:58;101760.38;;;2.37;100.00
15487;BME280;7845;53.698;10.078;2023-04-06T04:59:25;101758.09;;;2.24;100.00
15487;BME280;7845;53.698;10.078;2023-04-06T05:01:50;101756.63;;;2.29;100.00
15487;BME280;7845;53.698;10.078;2023-04-06T05:04:17;101759.44;;;2.35;100.00
15487;BME280;7845;53.698;10.078;2023-04-06T05:06:42;101755.06;;;2.33;100.00
15487;BME280;7845;53.698;10.078;2023-04-06T05:09:08;101760.75;;;2.46;100.00
15487;BME280;7845;53.698;10.078;2023-04-06T05:11:33;101758.63;;;2.57;100.00
15487;BME280;7845;53.698;10.078;2023-04-06T05:14:00;101751.06;;;2.61;100.00
15487;BME280;7845;53.698;10.078;2023-04-06T05:16:26;101757.47;;;2.71;100.00
15487;BME280;7845;53.698;10.078;2023-04-06T05:18:51;101759.09;;;2.69;100.00
15487;BME280;7845;53.698;10.078;2023-04-06T05:21:17;101750.09;;;2.80;100.00
15487;BME280;7845;53.698;10.078;2023-04-06T05:23:42;101751.13;;;2.84;100.00
15487;BME280;7845;53.698;10.078;2023-04-06T05:26:07;101741.66;;;2.84;100.00
15487;BME280;7845;53.698;10.078;2023-04-06T05:28:33;101745.44;;;2.92;100.00
15487;BME280;7845;53.698;10.078;2023-04-06T05:30:59;101743.44;;;2.85;100.00
15487;BME280;7845;53.698;10.078;2023-04-06T05:33:25;101747.78;;;2.86;100.00
15487;BME280;7845;53.698;10.078;2023-04-06T05:35:51;101734.47;;;2.98;100.00
15487;BME280;7845;53.698;10.078;2023-04-06T05:38:19;101741.16;;;2.93;100.00
15487;BME280;7845;53.698;10.078;2023-04-06T05:40:44;101735.69;;;2.85;100.00
15487;BME280;7845;53.698;10.078;2023-04-06T05:43:10;101733.75;;;3.02;100.00
15487;BME280;7845;53.698;10.078;2023-04-06T05:45:35;101736.97;;;3.18;100.00
15487;BME280;7845;53.698;10.078;2023-04-06T05:48:02;101742.72;;;3.33;100.00
15487;BME280;7845;53.698;10.078;2023-04-06T05:50:27;101736.44;;;3.51;100.00
15487;BME280;7845;53.698;10.078;2023-04-06T05:52:54;101739.47;;;3.63;100.00
15487;BME280;7845;53.698;10.078;2023-04-06T05:55:20;101730.03;;;3.88;100.00
15487;BME280;7845;53.698;10.078;2023-04-06T05:57:45;101733.91;;;4.00;100.00
15487;BME280;7845;53.698;10.078;2023-04-06T06:00:11;101726.03;;;3.97;100.00
15487;BME280;7845;53.698;10.078;2023-04-06T06:02:36;101739.16;;;4.28;100.00
15487;BME280;7845;53.698;10.078;2023-04-06T06:05:03;101731.19;;;4.47;100.00
15487;BME280;7845;53.698;10.078;2023-04-06T06:07:30;101717.31;;;4.45;100.00
15487;BME280;7845;53.698;10.078;2023-04-06T06:09:58;101731.56;;;4.59;100.00
15487;BME280;7845;53.698;10.078;2023-04-06T06:12:24;101725.44;;;4.57;100.00
15487;BME280;7845;53.698;10.078;2023-04-06T06:14:49;101732.97;;;4.76;100.00
15487;BME280;7845;53.698;10.078;2023-04-06T06:17:15;101722.81;;;4.82;100.00
15487;BME280;7845;53.698;10.078;2023-04-06T06:19:41;101725.31;;;5.08;100.00
15487;BME280;7845;53.698;10.078;2023-04-06T06:22:06;101724.00;;;5.22;100.00
15487;BME280;7845;53.698;10.078;2023-04-06T06:24:32;101730.63;;;5.42;100.00
15487;BME280;7845;53.698;10.078;2023-04-06T06:26:58;101725.25;;;5.66;100.00
15487;BME280;7845;53.698;10.078;2023-04-06T06:29:23;101720.22;;;5.70;100.00
15487;BME280;7845;53.698;10.078;2023-04-06T06:31:49;101716.63;;;5.96;100.00
15487;BME280;7845;53.698;10.078;2023-04-06T06:34:14;101702.13;;;6.03;100.00
15487;BME280;7845;53.698;10.078;2023-04-06T06:36:40;101698.31;;;6.25;100.00
15487;BME280;7845;53.698;10.078;2023-04-06T06:39:07;101701.94;;;6.30;100.00
15487;BME280;7845;53.698;10.078;2023-04-06T06:41:36;101717.78;;;6.42;100.00
15487;BME280;7845;53.698;10.078;2023-04-06T06:44:03;101730.31;;;6.59;100.00
15487;BME280;7845;53.698;10.078;2023-04-06T06:46:28;101730.69;;;6.76;100.00
15487;BME280;7845;53.698;10.078;2023-04-06T06:48:53;101710.91;;;6.81;100.00
15487;BME280;7845;53.698;10.078;2023-04-06T06:51:20;101693.06;;;6.96;100.00
15487;BME280;7845;53.698;10.078;2023-04-06T06:53:47;101675.41;;;7.19;100.00
15487;BME280;7845;53.698;10.078;2023-04-06T06:56:14;101667.94;;;7.34;100.00
15487;BME280;7845;53.698;10.078;2023-04-06T06:58:40;101658.50;;;7.41;100.00
15487;BME280;7845;53.698;10.078;2023-04-06T07:01:06;101659.69;;;7.56;100.00
15487;BME280;7845;53.698;10.078;2023-04-06T07:03:35;101652.13;;;7.68;100.00
15487;BME280;7845;53.698;10.078;2023-04-06T07:06:00;101642.03;;;7.85;100.00
15487;BME280;7845;53.698;10.078;2023-04-06T07:08:29;101629.25;;;7.97;100.00
15487;BME280;7845;53.698;10.078;2023-04-06T07:10:55;101620.81;;;8.12;100.00
15487;BME280;7845;53.698;10.078;2023-04-06T07:13:23;101617.63;;;8.28;100.00
15487;BME280;7845;53.698;10.078;2023-04-06T07:15:50;101619.44;;;8.33;100.00
15487;BME280;7845;53.698;10.078;2023-04-06T07:18:16;101616.81;;;8.33;100.00
15487;BME280;7845;53.698;10.078;2023-04-06T07:20:42;101617.78;;;8.39;100.00
15487;BME280;7845;53.698;10.078;2023-04-06T07:23:07;101608.34;;;8.45;100.00
15487;BME280;7845;53.698;10.078;2023-04-06T07:25:33;101600.50;;;8.44;100.00
15487;BME280;7845;53.698;10.078;2023-04-06T07:27:58;101593.69;;;8.52;100.00
15487;BME280;7845;53.698;10.078;2023-04-06T07:30:24;101591.97;;;8.51;100.00
15487;BME280;7845;53.698;10.078;2023-04-06T07:32:51;101593.00;;;8.65;100.00
15487;BME280;7845;53.698;10.078;2023-04-06T07:35:17;101587.81;;;8.65;100.00
15487;BME280;7845;53.698;10.078;2023-04-06T07:37:42;101571.44;;;8.73;99.67
15487;BME280;7845;53.698;10.078;2023-04-06T07:40:08;101575.88;;;8.80;97.76
15487;BME280;7845;53.698;10.078;2023-04-06T07:42:34;101563.03;;;8.97;93.64
15487;BME280;7845;53.698;10.078;2023-04-06T07:45:00;101552.84;;;9.17;91.04
15487;BME280;7845;53.698;10.078;2023-04-06T07:47:25;101548.75;;;9.43;87.33
15487;BME280;7845;53.698;10.078;2023-04-06T07:49:54;101536.81;;;9.66;84.05
15487;BME280;7845;53.698;10.078;2023-04-06T07:52:20;101534.09;;;9.54;82.88
15487;BME280;7845;53.698;10.078;2023-04-06T07:54:46;101533.13;;;9.44;82.42
15487;BME280;7845;53.698;10.078;2023-04-06T07:57:11;101533.34;;;9.69;80.12
15487;BME280;7845;53.698;10.078;2023-04-06T07:59:38;101525.56;;;9.70;79.15
15487;BME280;7845;53.698;10.078;2023-04-06T08:02:05;101526.47;;;9.78;79.18
15487;BME280;7845;53.698;10.078;2023-04-06T08:04:30;101522.22;;;9.88;77.21
15487;BME280;7845;53.698;10.078;2023-04-06T08:06:56;101517.13;;;10.09;74.47
15487;BME280;7845;53.698;10.078;2023-04-06T08:09:21;101514.47;;;10.00;73.99
15487;BME280;7845;53.698;10.078;2023-04-06T08:11:46;101509.38;;;10.15;74.12
15487;BME280;7845;53.698;10.078;2023-04-06T08:14:15;101519.88;;;10.26;73.26
15487;BME280;7845;53.698;10.078;2023-04-06T08:16:43;101519.03;;;10.34;72.38
15487;BME280;7845;53.698;10.078;2023-04-06T08:19:08;101513.84;;;10.40;70.84
15487;BME280;7845;53.698;10.078;2023-04-06T08:21:35;101509.56;;;10.57;69.97
15487;BME280;7845;53.698;10.078;2023-04-06T08:24:01;101502.72;;;10.88;69.76
15487;BME280;7845;53.698;10.078;2023-04-06T08:26:26;101500.94;;;10.71;68.73
15487;BME280;7845;53.698;10.078;2023-04-06T08:28:53;101507.91;;;10.75;68.52
15487;BME280;7845;53.698;10.078;2023-04-06T08:31:18;101487.88;;;10.77;66.99
15487;BME280;7845;53.698;10.078;2023-04-06T08:33:44;101493.16;;;10.95;66.40
15487;BME280;7845;53.698;10.078;2023-04-06T08:36:11;101487.91;;;10.93;65.01
15487;BME280;7845;53.698;10.078;2023-04-06T08:38:37;101491.41;;;10.91;63.88
15487;BME280;7845;53.698;10.078;2023-04-06T08:41:10;101493.13;;;10.80;64.98
15487;BME280;7845;53.698;10.078;2023-04-06T08:43:43;101489.69;;;10.97;64.24
15487;BME280;7845;53.698;10.078;2023-04-06T08:46:09;101484.44;;;10.91;64.09
15487;BME280;7845;53.698;10.078;2023-04-06T08:48:36;101486.19;;;10.97;63.09
15487;BME280;7845;53.698;10.078;2023-04-06T08:51:02;101487.97;;;11.04;64.30
15487;BME280;7845;53.698;10.078;2023-04-06T08:53:27;101482.72;;;11.08;64.07
15487;BME280;7845;53.698;10.078;2023-04-06T08:55:58;101478.41;;;11.27;63.28
15487;BME280;7845;53.698;10.078;2023-04-06T08:58:24;101488.88;;;11.26;63.34
15487;BME280;7845;53.698;10.078;2023-04-06T09:00:51;101487.13;;;11.37;62.66
15487;BME280;7845;53.698;10.078;2023-04-06T09:03:17;101490.59;;;11.21;61.97
15487;BME280;7845;53.698;10.078;2023-04-06T09:05:44;101483.63;;;11.42;62.26
15487;BME280;7845;53.698;10.078;2023-04-06T09:08:11;101478.41;;;11.35;61.03
15487;BME280;7845;53.698;10.078;2023-04-06T09:10:41;101482.75;;;11.42;60.45
15487;BME280;7845;53.698;10.078;2023-04-06T09:13:08;101483.66;;;11.38;60.14
15487;BME280;7845;53.698;10.078;2023-04-06T09:15:37;101481.88;;;11.38;60.30
15487;BME280;7845;53.698;10.078;2023-04-06T09:18:04;101467.09;;;11.71;59.05
15487;BME280;7845;53.698;10.078;2023-04-06T09:20:31;101463.59;;;11.58;57.34
15487;BME280;7845;53.698;10.078;2023-04-06T09:22:56;101461.84;;;11.42;57.21
15487;BME280;7845;53.698;10.078;2023-04-06T09:25:24;101463.56;;;11.62;57.41
15487;BME280;7845;53.698;10.078;2023-04-06T09:28:02;101458.31;;;11.96;57.33
15487;BME280;7845;53.698;10.078;2023-04-06T09:30:28;101474.03;;;11.68;58.56
15487;BME280;7845;53.698;10.078;2023-04-06T09:32:56;101464.44;;;11.95;58.64
15487;BME280;7845;53.698;10.078;2023-04-06T09:35:22;101464.44;;;11.86;57.16
15487;BME280;7845;53.698;10.078;2023-04-06T09:37:53;101450.50;;;11.97;54.15
15487;BME280;7845;53.698;10.078;2023-04-06T09:40:19;101454.00;;;11.87;54.50
15487;BME280;7845;53.698;10.078;2023-04-06T09:42:48;101460.09;;;11.91;55.73
15487;BME280;7845;53.698;10.078;2023-04-06T09:45:15;101441.78;;;11.94;54.26
15487;BME280;7845;53.698;10.078;2023-04-06T09:47:46;101441.69;;;12.18;53.53
15487;BME280;7845;53.698;10.078;2023-04-06T09:50:12;101428.66;;;12.09;52.34
15487;BME280;7845;53.698;10.078;2023-04-06T09:52:48;101432.06;;;12.26;52.61
15487;BME280;7845;53.698;10.078;2023-04-06T09:55:23;101429.41;;;12.32;52.38
15487;BME280;7845;53.698;10.078;2023-04-06T09:58:01;101431.16;;;12.33;52.05
15487;BME280;7845;53.698;10.078;2023-04-06T10:00:30;101427.66;;;12.39;51.81
15487;BME280;7845;53.698;10.078;2023-04-06T10:05:58;101424.19;;;12.28;51.79
15487;BME280;7845;53.698;10.078;2023-04-06T10:08:27;101419.72;;;12.49;51.54
15487;BME280;7845;53.698;10.078;2023-04-06T10:10:56;101424.00;;;12.64;52.73
15487;BME280;7845;53.698;10.078;2023-04-06T10:13:23;101436.91;;;12.97;53.15
15487;BME280;7845;53.698;10.078;2023-04-06T10:15:49;101408.06;;;13.00;50.53
15487;BME280;7845;53.698;10.078;2023-04-06T10:18:16;101421.16;;;13.08;51.26
15487;BME280;7845;53.698;10.078;2023-04-06T10:20:49;101428.41;;;12.62;51.68
15487;BME280;7845;53.698;10.078;2023-04-06T10:25:58;101433.50;;;12.83;52.06
15487;BME280;7845;53.698;10.078;2023-04-06T10:28:26;101437.13;;;12.65;52.89
15487;BME280;7845;53.698;10.078;2023-04-06T10:30:57;101448.28;;;12.93;53.47
15487;BME280;7845;53.698;10.078;2023-04-06T10:33:24;101431.75;;;12.87;53.05
15487;BME280;7845;53.698;10.078;2023-04-06T10:35:51;101427.28;;;12.96;52.50
15487;BME280;7845;53.698;10.078;2023-04-06T10:38:17;101426.34;;;13.12;51.61
15487;BME280;7845;53.698;10.078;2023-04-06T10:40:47;101423.66;;;13.23;51.64
15487;BME280;7845;53.698;10.078;2023-04-06T10:43:21;101423.63;;;13.26;53.12
15487;BME280;7845;53.698;10.078;2023-04-06T10:45:59;101426.00;;;13.50;53.05
15487;BME280;7845;53.698;10.078;2023-04-06T10:48:36;101415.81;;;13.20;49.92
15487;BME280;7845;53.698;10.078;2023-04-06T10:51:09;101400.81;;;13.34;49.43
15487;BME280;7845;53.698;10.078;2023-04-06T10:53:36;101401.63;;;13.42;50.51
15487;BME280;7845;53.698;10.078;2023-04-06T10:56:09;101402.41;;;13.52;50.07
15487;BME280;7845;53.698;10.078;2023-04-06T10:58:36;101399.63;;;13.67;49.14
15487;BME280;7845;53.698;10.078;2023-04-06T11:01:01;101392.66;;;13.63;47.68
15487;BME280;7845;53.698;10.078;2023-04-06T11:03:27;101383.88;;;13.67;46.70
15487;BME280;7845;53.698;10.078;2023-04-06T11:05:52;101375.13;;;13.68;46.84
15487;BME280;7845;53.698;10.078;2023-04-06T11:08:26;101384.69;;;13.73;47.47
15487;BME280;7845;53.698;10.078;2023-04-06T11:11:04;101381.88;;;13.92;47.83
15487;BME280;7845;53.698;10.078;2023-04-06T11:13:40;101387.09;;;13.93;48.18
15487;BME280;7845;53.698;10.078;2023-04-06T11:16:19;101385.22;;;14.01;48.25
15487;BME280;7845;53.698;10.078;2023-04-06T11:18:55;101378.97;;;14.14;46.52
15487;BME280;7845;53.698;10.078;2023-04-06T11:21:43;101374.56;;;14.15;46.10
15487;BME280;7845;53.698;10.078;2023-04-06T11:29:12;101372.19;;;13.97;46.77
15487;BME280;7845;53.698;10.078;2023-04-06T11:34:20;101373.06;;;13.97;45.92
15487;BME280;7845;53.698;10.078;2023-04-06T11:36:47;101372.59;;;13.62;45.85
15487;BME280;7845;53.698;10.078;2023-04-06T11:39:19;101362.03;;;14.38;46.05
15487;BME280;7845;53.698;10.078;2023-04-06T11:41:53;101375.53;;;14.73;47.18
15487;BME280;7845;53.698;10.078;2023-04-06T11:44:33;101363.31;;;14.71;45.95
15487;BME280;7845;53.698;10.078;2023-04-06T11:47:00;101362.47;;;14.67;46.49
15487;BME280;7845;53.698;10.078;2023-04-06T11:49:29;101367.41;;;14.88;45.83
15487;BME280;7845;53.698;10.078;2023-04-06T11:52:00;101372.03;;;14.73;47.40
15487;BME280;7845;53.698;10.078;2023-04-06T11:56:55;101350.81;;;14.86;46.12
15487;BME280;7845;53.698;10.078;2023-04-06T11:59:20;101357.75;;;14.89;46.41
15487;BME280;7845;53.698;10.078;2023-04-06T12:01:46;101365.97;;;15.21;46.74
15487;BME280;7845;53.698;10.078;2023-04-06T12:04:12;101351.72;;;14.82;45.63
15487;BME280;7845;53.698;10.078;2023-04-06T12:06:40;101347.00;;;15.04;44.20
15487;BME280;7845;53.698;10.078;2023-04-06T12:09:05;101350.41;;;15.11;45.91
15487;BME280;7845;53.698;10.078;2023-04-06T12:11:31;101340.13;;;14.95;45.14
15487;BME280;7845;53.698;10.078;2023-04-06T12:13:56;101342.53;;;15.09;44.64
15487;BME280;7845;53.698;10.078;2023-04-06T12:16:21;101348.50;;;15.19;43.85
15487;BME280;7845;53.698;10.078;2023-04-06T12:18:46;101331.88;;;15.17;43.56
15487;BME280;7845;53.698;10.078;2023-04-06T12:21:12;101344.00;;;15.25;44.70
15487;BME280;7845;53.698;10.078;2023-04-06T12:23:37;101340.91;;;15.02;44.16
15487;BME280;7845;53.698;10.078;2023-04-06T12:26:03;101340.75;;;15.10;43.37
15487;BME280;7845;53.698;10.078;2023-04-06T12:28:30;101343.13;;;15.25;44.35
15487;BME280;7845;53.698;10.078;2023-04-06T12:30:55;101347.41;;;15.30;44.44
15487;BME280;7845;53.698;10.078;2023-04-06T12:33:20;101353.72;;;15.22;45.03
15487;BME280;7845;53.698;10.078;2023-04-06T12:35:46;101334.88;;;15.44;44.70
15487;BME280;7845;53.698;10.078;2023-04-06T12:38:13;101343.06;;;15.28;44.76
15487;BME280;7845;53.698;10.078;2023-04-06T12:40:40;101340.78;;;15.59;43.99
15487;BME280;7845;53.698;10.078;2023-04-06T12:43:05;101323.72;;;15.79;43.03
15487;BME280;7845;53.698;10.078;2023-04-06T12:45:31;101333.31;;;15.82;43.27
15487;BME280;7845;53.698;10.078;2023-04-06T12:47:58;101335.00;;;15.84;43.89
15487;BME280;7845;53.698;10.078;2023-04-06T12:50:24;101311.06;;;15.95;42.16
15487;BME280;7845;53.698;10.078;2023-04-06T12:52:49;101313.53;;;15.61;42.57
15487;BME280;7845;53.698;10.078;2023-04-06T12:55:16;101326.47;;;16.15;43.56
15487;BME280;7845;53.698;10.078;2023-04-06T12:57:41;101319.63;;;16.06;43.17
15487;BME280;7845;53.698;10.078;2023-04-06T13:00:07;101317.13;;;15.98;42.26
15487;BME280;7845;53.698;10.078;2023-04-06T13:02:32;101317.81;;;16.08;42.83
15487;BME280;7845;53.698;10.078;2023-04-06T13:04:58;101320.84;;;15.90;43.01